sensor_id;sensor_type;location;lat;lon;timestamp;P1;durP1;ratioP1;P2;durP2;ratioP2
69325;SDS011;56471;53.508;49.252;2023-05-07T00:01:19;3.25;;;2.03;;
69325;SDS011;56471;53.508;49.252;2023-05-07T00:03:45;2.65;;;2.10;;
69325;SDS011;56471;53.508;49.252;2023-05-07T00:06:10;3.65;;;2.40;;
69325;SDS011;56471;53.508;49.252;2023-05-07T00:08:38;2.92;;;2.08;;
69325;SDS011;56471;53.508;49.252;2023-05-07T00:11:03;2.47;;;2.10;;
69325;SDS011;56471;53.508;49.252;2023-05-07T00:13:29;2.38;;;2.00;;
69325;SDS011;56471;53.508;49.252;2023-05-07T00:16:00;2.70;;;1.90;;
69325;SDS011;56471;53.508;49.252;2023-05-07T00:18:27;3.03;;;1.80;;
69325;SDS011;56471;53.508;49.252;2023-05-07T00:20:53;2.92;;;1.92;;
69325;SDS011;56471;53.508;49.252;2023-05-07T00:23:19;2.10;;;1.90;;
69325;SDS011;56471;53.508;49.252;2023-05-07T00:25:44;3.00;;;2.10;;
69325;SDS011;56471;53.508;49.252;2023-05-07T00:28:10;3.45;;;2.25;;
69325;SDS011;56471;53.508;49.252;2023-05-07T00:30:36;3.03;;;2.22;;
69325;SDS011;56471;53.508;49.252;2023-05-07T00:33:01;3.60;;;2.00;;
69325;SDS011;56471;53.508;49.252;2023-05-07T00:35:28;4.60;;;2.33;;
69325;SDS011;56471;53.508;49.252;2023-05-07T00:37:55;2.85;;;1.95;;
69325;SDS011;56471;53.508;49.252;2023-05-07T00:40:20;2.85;;;2.28;;
69325;SDS011;56471;53.508;49.252;2023-05-07T00:42:46;2.00;;;1.80;;
69325;SDS011;56471;53.508;49.252;2023-05-07T00:45:14;4.05;;;2.10;;
69325;SDS011;56471;53.508;49.252;2023-05-07T00:47:41;4.47;;;2.10;;
69325;SDS011;56471;53.508;49.252;2023-05-07T00:50:07;5.60;;;1.88;;
69325;SDS011;56471;53.508;49.252;2023-05-07T00:52:35;3.90;;;1.92;;
69325;SDS011;56471;53.508;49.252;2023-05-07T00:55:05;2.33;;;1.80;;
69325;SDS011;56471;53.508;49.252;2023-05-07T00:57:32;2.10;;;1.70;;
69325;SDS011;56471;53.508;49.252;2023-05-07T01:00:06;3.75;;;1.70;;
69325;SDS011;56471;53.508;49.252;2023-05-07T01:02:36;2.67;;;1.70;;
69325;SDS011;56471;53.508;49.252;2023-05-07T01:05:06;2.70;;;1.52;;
69325;SDS011;56471;53.508;49.252;2023-05-07T01:07:34;2.85;;;1.70;;
69325;SDS011;56471;53.508;49.252;2023-05-07T01:10:02;3.53;;;1.70;;
69325;SDS011;56471;53.508;49.252;2023-05-07T01:12:29;3.40;;;1.58;;
69325;SDS011;56471;53.508;49.252;2023-05-07T01:14:56;2.17;;;1.63;;
69325;SDS011;56471;53.508;49.252;2023-05-07T01:17:22;1.50;;;1.20;;
69325;SDS011;56471;53.508;49.252;2023-05-07T01:19:51;1.67;;;1.25;;
69325;SDS011;56471;53.508;49.252;2023-05-07T01:22:23;1.67;;;1.25;;
69325;SDS011;56471;53.508;49.252;2023-05-07T01:24:58;1.50;;;1.40;;
69325;SDS011;56471;53.508;49.252;2023-05-07T01:27:25;2.10;;;1.40;;
69325;SDS011;56471;53.508;49.252;2023-05-07T01:29:50;3.33;;;1.50;;
69325;SDS011;56471;53.508;49.252;2023-05-07T01:32:16;2.70;;;1.60;;
69325;SDS011;56471;53.508;49.252;2023-05-07T01:34:46;1.92;;;1.50;;
69325;SDS011;56471;53.508;49.252;2023-05-07T01:37:14;2.95;;;1.50;;
69325;SDS011;56471;53.508;49.252;2023-05-07T01:39:42;1.92;;;1.60;;
69325;SDS011;56471;53.508;49.252;2023-05-07T01:42:08;3.85;;;1.50;;
69325;SDS011;56471;53.508;49.252;2023-05-07T01:44:34;2.88;;;1.40;;
69325;SDS011;56471;53.508;49.252;2023-05-07T01:47:00;1.83;;;1.40;;
69325;SDS011;56471;53.508;49.252;2023-05-07T01:49:27;2.45;;;1.45;;
69325;SDS011;56471;53.508;49.252;2023-05-07T01:51:53;2.33;;;1.42;;
69325;SDS011;56471;53.508;49.252;2023-05-07T01:54:18;2.90;;;1.40;;
69325;SDS011;56471;53.508;49.252;2023-05-07T01:56:45;2.40;;;1.38;;
69325;SDS011;56471;53.508;49.252;2023-05-07T01:59:13;1.77;;;1.42;;
69325;SDS011;56471;53.508;49.252;2023-05-07T02:01:38;1.90;;;1.40;;
69325;SDS011;56471;53.508;49.252;2023-05-07T02:04:04;1.40;;;1.30;;
69325;SDS011;56471;53.508;49.252;2023-05-07T02:06:30;2.25;;;1.20;;
69325;SDS011;56471;53.508;49.252;2023-05-07T02:08:56;3.95;;;1.40;;
69325;SDS011;56471;53.508;49.252;2023-05-07T02:11:21;2.90;;;1.20;;
69325;SDS011;56471;53.508;49.252;2023-05-07T02:13:47;2.15;;;1.50;;
69325;SDS011;56471;53.508;49.252;2023-05-07T02:16:13;1.40;;;1.30;;
69325;SDS011;56471;53.508;49.252;2023-05-07T02:18:39;3.10;;;1.25;;
69325;SDS011;56471;53.508;49.252;2023-05-07T02:21:05;1.35;;;1.17;;
69325;SDS011;56471;53.508;49.252;2023-05-07T02:23:30;2.55;;;1.27;;
69325;SDS011;56471;53.508;49.252;2023-05-07T02:25:59;1.50;;;1.30;;
69325;SDS011;56471;53.508;49.252;2023-05-07T02:28:24;1.35;;;1.20;;
69325;SDS011;56471;53.508;49.252;2023-05-07T02:30:50;1.42;;;1.10;;
69325;SDS011;56471;53.508;49.252;2023-05-07T02:33:16;2.45;;;1.25;;
69325;SDS011;56471;53.508;49.252;2023-05-07T02:35:41;2.08;;;1.38;;
69325;SDS011;56471;53.508;49.252;2023-05-07T02:38:07;3.88;;;1.40;;
69325;SDS011;56471;53.508;49.252;2023-05-07T02:40:35;1.77;;;1.45;;
69325;SDS011;56471;53.508;49.252;2023-05-07T02:43:04;2.75;;;1.40;;
69325;SDS011;56471;53.508;49.252;2023-05-07T02:45:31;1.60;;;1.20;;
69325;SDS011;56471;53.508;49.252;2023-05-07T02:47:57;1.77;;;1.23;;
69325;SDS011;56471;53.508;49.252;2023-05-07T02:50:23;2.35;;;1.30;;
69325;SDS011;56471;53.508;49.252;2023-05-07T02:52:50;2.88;;;1.60;;
69325;SDS011;56471;53.508;49.252;2023-05-07T02:55:15;5.68;;;1.50;;
69325;SDS011;56471;53.508;49.252;2023-05-07T02:57:41;1.88;;;1.33;;
69325;SDS011;56471;53.508;49.252;2023-05-07T03:00:17;1.38;;;1.23;;
69325;SDS011;56471;53.508;49.252;2023-05-07T03:02:43;2.63;;;1.40;;
69325;SDS011;56471;53.508;49.252;2023-05-07T03:05:19;1.67;;;1.48;;
69325;SDS011;56471;53.508;49.252;2023-05-07T03:07:45;1.45;;;1.30;;
69325;SDS011;56471;53.508;49.252;2023-05-07T03:10:11;2.85;;;1.38;;
69325;SDS011;56471;53.508;49.252;2023-05-07T03:12:37;2.25;;;1.25;;
69325;SDS011;56471;53.508;49.252;2023-05-07T03:15:03;2.33;;;1.30;;
69325;SDS011;56471;53.508;49.252;2023-05-07T03:17:28;2.67;;;1.33;;
69325;SDS011;56471;53.508;49.252;2023-05-07T03:19:54;2.60;;;1.35;;
69325;SDS011;56471;53.508;49.252;2023-05-07T03:22:20;1.88;;;1.20;;
69325;SDS011;56471;53.508;49.252;2023-05-07T03:24:45;2.85;;;1.13;;
69325;SDS011;56471;53.508;49.252;2023-05-07T03:27:11;1.52;;;1.23;;
69325;SDS011;56471;53.508;49.252;2023-05-07T03:29:37;2.55;;;1.20;;
69325;SDS011;56471;53.508;49.252;2023-05-07T03:32:02;1.95;;;1.10;;
69325;SDS011;56471;53.508;49.252;2023-05-07T03:34:28;1.48;;;0.93;;
69325;SDS011;56471;53.508;49.252;2023-05-07T03:36:54;2.95;;;1.23;;
69325;SDS011;56471;53.508;49.252;2023-05-07T03:39:19;3.45;;;1.30;;
69325;SDS011;56471;53.508;49.252;2023-05-07T03:41:45;2.13;;;1.30;;
69325;SDS011;56471;53.508;49.252;2023-05-07T03:44:10;1.35;;;1.10;;
69325;SDS011;56471;53.508;49.252;2023-05-07T03:46:36;3.63;;;1.10;;
69325;SDS011;56471;53.508;49.252;2023-05-07T03:49:02;1.27;;;1.10;;
69325;SDS011;56471;53.508;49.252;2023-05-07T03:51:27;3.10;;;1.25;;
69325;SDS011;56471;53.508;49.252;2023-05-07T03:53:53;2.55;;;1.00;;
69325;SDS011;56471;53.508;49.252;2023-05-07T03:56:19;1.80;;;1.10;;
69325;SDS011;56471;53.508;49.252;2023-05-07T03:58:46;1.40;;;1.27;;
69325;SDS011;56471;53.508;49.252;2023-05-07T04:01:12;2.97;;;1.10;;
69325;SDS011;56471;53.508;49.252;2023-05-07T04:03:38;3.38;;;1.20;;
69325;SDS011;56471;53.508;49.252;2023-05-07T04:06:03;3.72;;;1.10;;
69325;SDS011;56471;53.508;49.252;2023-05-07T04:08:29;1.00;;;1.00;;
69325;SDS011;56471;53.508;49.252;2023-05-07T04:10:58;1.27;;;1.00;;
69325;SDS011;56471;53.508;49.252;2023-05-07T04:13:24;2.45;;;1.23;;
69325;SDS011;56471;53.508;49.252;2023-05-07T04:15:51;1.30;;;0.90;;
69325;SDS011;56471;53.508;49.252;2023-05-07T04:18:17;1.40;;;1.08;;
69325;SDS011;56471;53.508;49.252;2023-05-07T04:20:43;1.30;;;1.02;;
69325;SDS011;56471;53.508;49.252;2023-05-07T04:23:08;1.50;;;1.10;;
69325;SDS011;56471;53.508;49.252;2023-05-07T04:25:34;1.00;;;0.90;;
69325;SDS011;56471;53.508;49.252;2023-05-07T04:28:08;3.80;;;1.05;;
69325;SDS011;56471;53.508;49.252;2023-05-07T04:30:34;1.60;;;0.80;;
69325;SDS011;56471;53.508;49.252;2023-05-07T04:33:00;0.93;;;0.88;;
69325;SDS011;56471;53.508;49.252;2023-05-07T04:35:26;1.98;;;0.80;;
69325;SDS011;56471;53.508;49.252;2023-05-07T04:37:51;1.42;;;0.90;;
69325;SDS011;56471;53.508;49.252;2023-05-07T04:40:17;1.67;;;0.88;;
69325;SDS011;56471;53.508;49.252;2023-05-07T04:42:42;0.95;;;0.80;;
69325;SDS011;56471;53.508;49.252;2023-05-07T04:45:08;0.80;;;0.80;;
69325;SDS011;56471;53.508;49.252;2023-05-07T04:47:35;0.95;;;0.80;;
69325;SDS011;56471;53.508;49.252;2023-05-07T04:50:01;1.92;;;0.85;;
69325;SDS011;56471;53.508;49.252;2023-05-07T04:52:27;1.00;;;0.90;;
69325;SDS011;56471;53.508;49.252;2023-05-07T04:54:53;2.28;;;0.90;;
69325;SDS011;56471;53.508;49.252;2023-05-07T04:57:18;3.22;;;0.95;;
69325;SDS011;56471;53.508;49.252;2023-05-07T04:59:44;1.02;;;0.80;;
69325;SDS011;56471;53.508;49.252;2023-05-07T05:02:10;1.20;;;0.98;;
69325;SDS011;56471;53.508;49.252;2023-05-07T05:04:35;1.17;;;0.90;;
69325;SDS011;56471;53.508;49.252;2023-05-07T05:07:02;2.72;;;0.95;;
69325;SDS011;56471;53.508;49.252;2023-05-07T05:09:30;1.10;;;1.00;;
69325;SDS011;56471;53.508;49.252;2023-05-07T05:11:56;4.53;;;1.00;;
69325;SDS011;56471;53.508;49.252;2023-05-07T05:14:24;1.13;;;0.90;;
69325;SDS011;56471;53.508;49.252;2023-05-07T05:16:50;1.52;;;0.90;;
69325;SDS011;56471;53.508;49.252;2023-05-07T05:19:16;1.20;;;0.90;;
69325;SDS011;56471;53.508;49.252;2023-05-07T05:21:41;1.20;;;1.00;;
69325;SDS011;56471;53.508;49.252;2023-05-07T05:24:07;0.85;;;0.85;;
69325;SDS011;56471;53.508;49.252;2023-05-07T05:26:33;0.90;;;0.90;;
69325;SDS011;56471;53.508;49.252;2023-05-07T05:28:59;0.93;;;0.80;;
69325;SDS011;56471;53.508;49.252;2023-05-07T05:31:25;1.95;;;0.93;;
69325;SDS011;56471;53.508;49.252;2023-05-07T05:33:50;1.42;;;1.05;;
69325;SDS011;56471;53.508;49.252;2023-05-07T05:36:16;1.17;;;0.98;;
69325;SDS011;56471;53.508;49.252;2023-05-07T05:38:42;2.47;;;0.98;;
69325;SDS011;56471;53.508;49.252;2023-05-07T05:41:08;1.60;;;0.80;;
69325;SDS011;56471;53.508;49.252;2023-05-07T05:43:34;1.05;;;0.82;;
69325;SDS011;56471;53.508;49.252;2023-05-07T05:46:00;1.10;;;1.00;;
69325;SDS011;56471;53.508;49.252;2023-05-07T05:48:26;0.80;;;0.80;;
69325;SDS011;56471;53.508;49.252;2023-05-07T05:50:51;0.65;;;0.65;;
69325;SDS011;56471;53.508;49.252;2023-05-07T05:53:17;1.77;;;0.80;;
69325;SDS011;56471;53.508;49.252;2023-05-07T05:55:43;1.58;;;1.00;;
69325;SDS011;56471;53.508;49.252;2023-05-07T05:58:09;1.40;;;0.90;;
69325;SDS011;56471;53.508;49.252;2023-05-07T06:00:34;1.63;;;0.80;;
69325;SDS011;56471;53.508;49.252;2023-05-07T06:03:00;1.30;;;1.00;;
69325;SDS011;56471;53.508;49.252;2023-05-07T06:05:26;3.08;;;1.05;;
69325;SDS011;56471;53.508;49.252;2023-05-07T06:07:51;1.20;;;0.95;;
69325;SDS011;56471;53.508;49.252;2023-05-07T06:10:17;1.15;;;0.82;;
69325;SDS011;56471;53.508;49.252;2023-05-07T06:12:43;0.80;;;0.80;;
69325;SDS011;56471;53.508;49.252;2023-05-07T06:15:09;1.02;;;0.80;;
69325;SDS011;56471;53.508;49.252;2023-05-07T06:17:35;1.33;;;0.90;;
69325;SDS011;56471;53.508;49.252;2023-05-07T06:20:00;1.15;;;0.90;;
69325;SDS011;56471;53.508;49.252;2023-05-07T06:22:26;1.58;;;0.80;;
69325;SDS011;56471;53.508;49.252;2023-05-07T06:24:52;0.80;;;0.80;;
69325;SDS011;56471;53.508;49.252;2023-05-07T06:27:17;2.08;;;0.80;;
69325;SDS011;56471;53.508;49.252;2023-05-07T06:29:43;1.45;;;0.80;;
69325;SDS011;56471;53.508;49.252;2023-05-07T06:32:12;2.00;;;0.90;;
69325;SDS011;56471;53.508;49.252;2023-05-07T06:34:38;1.67;;;1.00;;
69325;SDS011;56471;53.508;49.252;2023-05-07T06:37:05;1.55;;;0.90;;
69325;SDS011;56471;53.508;49.252;2023-05-07T06:39:31;1.40;;;0.85;;
69325;SDS011;56471;53.508;49.252;2023-05-07T06:41:58;1.75;;;0.82;;
69325;SDS011;56471;53.508;49.252;2023-05-07T06:44:23;1.38;;;0.77;;
69325;SDS011;56471;53.508;49.252;2023-05-07T06:46:49;1.80;;;0.90;;
69325;SDS011;56471;53.508;49.252;2023-05-07T06:49:15;1.25;;;0.90;;
69325;SDS011;56471;53.508;49.252;2023-05-07T06:51:40;0.80;;;0.80;;
69325;SDS011;56471;53.508;49.252;2023-05-07T06:54:06;2.17;;;1.10;;
69325;SDS011;56471;53.508;49.252;2023-05-07T06:56:32;2.45;;;1.00;;
69325;SDS011;56471;53.508;49.252;2023-05-07T06:59:02;3.20;;;0.88;;
69325;SDS011;56471;53.508;49.252;2023-05-07T07:01:28;2.58;;;0.90;;
69325;SDS011;56471;53.508;49.252;2023-05-07T07:03:54;1.63;;;0.80;;
69325;SDS011;56471;53.508;49.252;2023-05-07T07:06:20;2.33;;;1.00;;
69325;SDS011;56471;53.508;49.252;2023-05-07T07:08:46;1.23;;;0.82;;
69325;SDS011;56471;53.508;49.252;2023-05-07T07:11:11;1.02;;;0.90;;
69325;SDS011;56471;53.508;49.252;2023-05-07T07:13:37;2.55;;;0.80;;
69325;SDS011;56471;53.508;49.252;2023-05-07T07:16:03;0.73;;;0.73;;
69325;SDS011;56471;53.508;49.252;2023-05-07T07:18:28;0.90;;;0.80;;
69325;SDS011;56471;53.508;49.252;2023-05-07T07:20:54;3.53;;;0.90;;
69325;SDS011;56471;53.508;49.252;2023-05-07T07:23:20;2.75;;;0.80;;
69325;SDS011;56471;53.508;49.252;2023-05-07T07:25:46;1.00;;;0.80;;
69325;SDS011;56471;53.508;49.252;2023-05-07T07:28:12;2.05;;;0.85;;
69325;SDS011;56471;53.508;49.252;2023-05-07T07:30:38;1.38;;;0.88;;
69325;SDS011;56471;53.508;49.252;2023-05-07T07:33:04;1.40;;;0.93;;
69325;SDS011;56471;53.508;49.252;2023-05-07T07:35:30;2.40;;;0.82;;
69325;SDS011;56471;53.508;49.252;2023-05-07T07:38:03;0.95;;;0.85;;
69325;SDS011;56471;53.508;49.252;2023-05-07T07:40:29;1.00;;;0.85;;
69325;SDS011;56471;53.508;49.252;2023-05-07T07:42:59;0.82;;;0.70;;
69325;SDS011;56471;53.508;49.252;2023-05-07T07:45:28;0.70;;;0.70;;
69325;SDS011;56471;53.508;49.252;2023-05-07T07:47:54;1.20;;;0.82;;
69325;SDS011;56471;53.508;49.252;2023-05-07T07:50:20;2.05;;;0.80;;
69325;SDS011;56471;53.508;49.252;2023-05-07T07:52:45;1.33;;;0.93;;
69325;SDS011;56471;53.508;49.252;2023-05-07T07:55:11;1.25;;;0.82;;
69325;SDS011;56471;53.508;49.252;2023-05-07T07:57:37;3.42;;;0.80;;
69325;SDS011;56471;53.508;49.252;2023-05-07T08:00:03;1.30;;;0.90;;
69325;SDS011;56471;53.508;49.252;2023-05-07T08:02:29;1.77;;;0.90;;
69325;SDS011;56471;53.508;49.252;2023-05-07T08:04:55;2.45;;;0.90;;
69325;SDS011;56471;53.508;49.252;2023-05-07T08:07:21;1.73;;;1.00;;
69325;SDS011;56471;53.508;49.252;2023-05-07T08:09:47;3.78;;;0.90;;
69325;SDS011;56471;53.508;49.252;2023-05-07T08:12:13;1.25;;;0.80;;
69325;SDS011;56471;53.508;49.252;2023-05-07T08:14:39;1.00;;;0.70;;
69325;SDS011;56471;53.508;49.252;2023-05-07T08:17:05;1.75;;;0.80;;
69325;SDS011;56471;53.508;49.252;2023-05-07T08:19:31;2.65;;;0.70;;
69325;SDS011;56471;53.508;49.252;2023-05-07T08:21:57;6.47;;;0.88;;
69325;SDS011;56471;53.508;49.252;2023-05-07T08:24:23;1.08;;;0.80;;
69325;SDS011;56471;53.508;49.252;2023-05-07T08:26:48;1.05;;;0.90;;
69325;SDS011;56471;53.508;49.252;2023-05-07T08:29:14;1.90;;;0.98;;
69325;SDS011;56471;53.508;49.252;2023-05-07T08:31:40;1.10;;;0.95;;
69325;SDS011;56471;53.508;49.252;2023-05-07T08:34:06;1.52;;;0.90;;
69325;SDS011;56471;53.508;49.252;2023-05-07T08:36:32;1.90;;;0.95;;
69325;SDS011;56471;53.508;49.252;2023-05-07T08:38:58;3.58;;;0.90;;
69325;SDS011;56471;53.508;49.252;2023-05-07T08:41:24;0.80;;;0.80;;
69325;SDS011;56471;53.508;49.252;2023-05-07T08:43:50;1.33;;;0.98;;
69325;SDS011;56471;53.508;49.252;2023-05-07T08:46:17;6.78;;;1.30;;
69325;SDS011;56471;53.508;49.252;2023-05-07T08:48:50;2.55;;;1.60;;
69325;SDS011;56471;53.508;49.252;2023-05-07T08:51:18;6.65;;;1.95;;
69325;SDS011;56471;53.508;49.252;2023-05-07T08:53:46;2.28;;;1.27;;
69325;SDS011;56471;53.508;49.252;2023-05-07T08:56:13;4.50;;;1.50;;
69325;SDS011;56471;53.508;49.252;2023-05-07T08:58:40;1.83;;;1.30;;
69325;SDS011;56471;53.508;49.252;2023-05-07T09:01:08;3.85;;;2.00;;
69325;SDS011;56471;53.508;49.252;2023-05-07T09:03:38;4.07;;;1.90;;
69325;SDS011;56471;53.508;49.252;2023-05-07T09:06:05;4.50;;;2.47;;
69325;SDS011;56471;53.508;49.252;2023-05-07T09:08:32;3.17;;;1.90;;
69325;SDS011;56471;53.508;49.252;2023-05-07T09:10:58;2.95;;;1.80;;
69325;SDS011;56471;53.508;49.252;2023-05-07T09:13:24;3.85;;;1.80;;
69325;SDS011;56471;53.508;49.252;2023-05-07T09:15:50;3.55;;;1.65;;
69325;SDS011;56471;53.508;49.252;2023-05-07T09:18:15;2.85;;;1.60;;
69325;SDS011;56471;53.508;49.252;2023-05-07T09:20:41;5.15;;;1.77;;
69325;SDS011;56471;53.508;49.252;2023-05-07T09:23:07;1.67;;;1.23;;
69325;SDS011;56471;53.508;49.252;2023-05-07T09:25:33;1.50;;;1.35;;
69325;SDS011;56471;53.508;49.252;2023-05-07T09:28:02;1.90;;;1.10;;
69325;SDS011;56471;53.508;49.252;2023-05-07T09:30:32;1.27;;;1.17;;
69325;SDS011;56471;53.508;49.252;2023-05-07T09:32:59;1.98;;;1.20;;
69325;SDS011;56471;53.508;49.252;2023-05-07T09:35:26;5.15;;;1.00;;
69325;SDS011;56471;53.508;49.252;2023-05-07T09:37:56;1.67;;;1.17;;
69325;SDS011;56471;53.508;49.252;2023-05-07T09:40:24;1.08;;;0.98;;
69325;SDS011;56471;53.508;49.252;2023-05-07T09:42:54;1.60;;;1.30;;
69325;SDS011;56471;53.508;49.252;2023-05-07T09:45:26;1.95;;;1.33;;
69325;SDS011;56471;53.508;49.252;2023-05-07T09:47:55;2.33;;;1.17;;
69325;SDS011;56471;53.508;49.252;2023-05-07T09:50:26;2.90;;;1.23;;
69325;SDS011;56471;53.508;49.252;2023-05-07T09:52:54;1.85;;;1.30;;
69325;SDS011;56471;53.508;49.252;2023-05-07T09:55:21;3.22;;;1.27;;
69325;SDS011;56471;53.508;49.252;2023-05-07T09:57:50;2.17;;;1.20;;
69325;SDS011;56471;53.508;49.252;2023-05-07T10:00:21;1.98;;;1.25;;
69325;SDS011;56471;53.508;49.252;2023-05-07T10:02:57;1.73;;;1.30;;
69325;SDS011;56471;53.508;49.252;2023-05-07T10:05:23;2.92;;;1.45;;
69325;SDS011;56471;53.508;49.252;2023-05-07T10:07:50;1.45;;;1.30;;
69325;SDS011;56471;53.508;49.252;2023-05-07T10:10:16;2.47;;;1.30;;
69325;SDS011;56471;53.508;49.252;2023-05-07T10:12:42;2.15;;;1.10;;
69325;SDS011;56471;53.508;49.252;2023-05-07T10:15:09;1.63;;;1.10;;
69325;SDS011;56471;53.508;49.252;2023-05-07T10:17:36;3.38;;;1.10;;
69325;SDS011;56471;53.508;49.252;2023-05-07T10:20:03;593.70;;;412.77;;
69325;SDS011;56471;53.508;49.252;2023-05-07T10:22:39;567.70;;;369.33;;
69325;SDS011;56471;53.508;49.252;2023-05-07T10:25:17;500.33;;;322.55;;
69325;SDS011;56471;53.508;49.252;2023-05-07T10:27:48;400.20;;;247.70;;
69325;SDS011;56471;53.508;49.252;2023-05-07T10:35:46;158.13;;;85.20;;
69325;SDS011;56471;53.508;49.252;2023-05-07T10:38:13;122.35;;;63.70;;
69325;SDS011;56471;53.508;49.252;2023-05-07T10:40:39;95.22;;;48.67;;
69325;SDS011;56471;53.508;49.252;2023-05-07T10:43:05;74.65;;;36.88;;
69325;SDS011;56471;53.508;49.252;2023-05-07T10:45:31;59.20;;;29.35;;
69325;SDS011;56471;53.508;49.252;2023-05-07T10:50:37;27.05;;;13.60;;
69325;SDS011;56471;53.508;49.252;2023-05-07T10:55:47;15.23;;;7.68;;
69325;SDS011;56471;53.508;49.252;2023-05-07T10:58:23;16.17;;;7.80;;
69325;SDS011;56471;53.508;49.252;2023-05-07T11:01:00;12.13;;;5.82;;
69325;SDS011;56471;53.508;49.252;2023-05-07T11:03:26;10.45;;;4.90;;
69325;SDS011;56471;53.508;49.252;2023-05-07T11:06:09;9.48;;;3.97;;
69325;SDS011;56471;53.508;49.252;2023-05-07T11:11:17;5.95;;;2.83;;
69325;SDS011;56471;53.508;49.252;2023-05-07T11:13:45;4.40;;;2.30;;
69325;SDS011;56471;53.508;49.252;2023-05-07T11:16:21;4.13;;;2.35;;
69325;SDS011;56471;53.508;49.252;2023-05-07T11:18:52;3.47;;;2.15;;
69325;SDS011;56471;53.508;49.252;2023-05-07T11:21:55;3.45;;;1.80;;
69325;SDS011;56471;53.508;49.252;2023-05-07T11:24:13;2.45;;;1.73;;
69325;SDS011;56471;53.508;49.252;2023-05-07T11:26:48;3.95;;;1.67;;
69325;SDS011;56471;53.508;49.252;2023-05-07T11:29:16;2.33;;;1.58;;
69325;SDS011;56471;53.508;49.252;2023-05-07T11:31:41;1.70;;;1.30;;
69325;SDS011;56471;53.508;49.252;2023-05-07T11:34:07;2.00;;;1.40;;
69325;SDS011;56471;53.508;49.252;2023-05-07T11:36:34;1.83;;;1.27;;
69325;SDS011;56471;53.508;49.252;2023-05-07T11:39:20;1.20;;;1.10;;
69325;SDS011;56471;53.508;49.252;2023-05-07T11:41:48;1.53;;;1.40;;
69325;SDS011;56471;53.508;49.252;2023-05-07T11:44:14;2.30;;;1.25;;
69325;SDS011;56471;53.508;49.252;2023-05-07T11:46:42;3.45;;;1.30;;
69325;SDS011;56471;53.508;49.252;2023-05-07T11:49:09;3.05;;;1.13;;
69325;SDS011;56471;53.508;49.252;2023-05-07T11:51:35;1.38;;;1.20;;
69325;SDS011;56471;53.508;49.252;2023-05-07T11:54:03;1.30;;;1.20;;
69325;SDS011;56471;53.508;49.252;2023-05-07T11:56:29;2.15;;;1.10;;
69325;SDS011;56471;53.508;49.252;2023-05-07T11:58:59;1.15;;;1.00;;
69325;SDS011;56471;53.508;49.252;2023-05-07T12:01:24;1.20;;;1.08;;
69325;SDS011;56471;53.508;49.252;2023-05-07T12:03:50;4.38;;;1.08;;
69325;SDS011;56471;53.508;49.252;2023-05-07T12:06:16;1.10;;;1.00;;
69325;SDS011;56471;53.508;49.252;2023-05-07T12:08:42;1.17;;;1.00;;
69325;SDS011;56471;53.508;49.252;2023-05-07T12:11:22;1.35;;;1.10;;
69325;SDS011;56471;53.508;49.252;2023-05-07T12:13:48;1.20;;;1.00;;
69325;SDS011;56471;53.508;49.252;2023-05-07T12:16:14;1.15;;;1.05;;
69325;SDS011;56471;53.508;49.252;2023-05-07T12:18:40;1.02;;;0.90;;
69325;SDS011;56471;53.508;49.252;2023-05-07T12:21:06;2.17;;;1.05;;
69325;SDS011;56471;53.508;49.252;2023-05-07T12:23:33;2.05;;;1.00;;
69325;SDS011;56471;53.508;49.252;2023-05-07T12:26:00;637.38;;;481.52;;
69325;SDS011;56471;53.508;49.252;2023-05-07T12:28:27;561.25;;;403.92;;
69325;SDS011;56471;53.508;49.252;2023-05-07T12:30:52;466.42;;;324.30;;
69325;SDS011;56471;53.508;49.252;2023-05-07T12:33:19;384.38;;;257.73;;
69325;SDS011;56471;53.508;49.252;2023-05-07T12:35:49;326.23;;;209.10;;
69325;SDS011;56471;53.508;49.252;2023-05-07T12:38:16;243.27;;;146.00;;
69325;SDS011;56471;53.508;49.252;2023-05-07T12:40:44;211.18;;;127.03;;
69325;SDS011;56471;53.508;49.252;2023-05-07T12:43:23;165.65;;;97.30;;
69325;SDS011;56471;53.508;49.252;2023-05-07T12:45:50;125.20;;;72.70;;
69325;SDS011;56471;53.508;49.252;2023-05-07T12:48:17;99.28;;;54.13;;
69325;SDS011;56471;53.508;49.252;2023-05-07T12:50:44;79.75;;;42.38;;
69325;SDS011;56471;53.508;49.252;2023-05-07T12:53:10;62.50;;;33.17;;
69325;SDS011;56471;53.508;49.252;2023-05-07T12:55:44;51.95;;;25.73;;
69325;SDS011;56471;53.508;49.252;2023-05-07T12:58:15;44.08;;;22.15;;
69325;SDS011;56471;53.508;49.252;2023-05-07T13:00:42;29.92;;;16.90;;
69325;SDS011;56471;53.508;49.252;2023-05-07T13:03:08;21.92;;;12.35;;
69325;SDS011;56471;53.508;49.252;2023-05-07T13:05:34;16.08;;;9.20;;
69325;SDS011;56471;53.508;49.252;2023-05-07T13:08:00;14.73;;;7.25;;
69325;SDS011;56471;53.508;49.252;2023-05-07T13:10:26;10.05;;;6.00;;
69325;SDS011;56471;53.508;49.252;2023-05-07T13:12:53;7.45;;;4.75;;
69325;SDS011;56471;53.508;49.252;2023-05-07T13:15:18;5.75;;;4.05;;
69325;SDS011;56471;53.508;49.252;2023-05-07T13:17:44;5.60;;;3.30;;
69325;SDS011;56471;53.508;49.252;2023-05-07T13:20:10;4.68;;;2.95;;
69325;SDS011;56471;53.508;49.252;2023-05-07T13:22:37;3.47;;;2.70;;
69325;SDS011;56471;53.508;49.252;2023-05-07T13:25:12;2.47;;;2.10;;
69325;SDS011;56471;53.508;49.252;2023-05-07T13:27:37;2.90;;;2.05;;
69325;SDS011;56471;53.508;49.252;2023-05-07T13:30:03;2.80;;;1.90;;
69325;SDS011;56471;53.508;49.252;2023-05-07T13:32:30;2.20;;;1.65;;
69325;SDS011;56471;53.508;49.252;2023-05-07T13:34:56;3.00;;;2.03;;
69325;SDS011;56471;53.508;49.252;2023-05-07T13:37:22;3.05;;;1.70;;
69325;SDS011;56471;53.508;49.252;2023-05-07T13:39:48;2.65;;;1.80;;
69325;SDS011;56471;53.508;49.252;2023-05-07T13:42:13;2.53;;;1.52;;
69325;SDS011;56471;53.508;49.252;2023-05-07T13:44:39;2.38;;;1.90;;
69325;SDS011;56471;53.508;49.252;2023-05-07T13:47:05;2.35;;;1.90;;
69325;SDS011;56471;53.508;49.252;2023-05-07T13:49:31;3.38;;;2.22;;
69325;SDS011;56471;53.508;49.252;2023-05-07T13:51:56;2.97;;;2.20;;
69325;SDS011;56471;53.508;49.252;2023-05-07T13:54:22;3.45;;;2.20;;
69325;SDS011;56471;53.508;49.252;2023-05-07T13:56:47;2.35;;;2.00;;
69325;SDS011;56471;53.508;49.252;2023-05-07T13:59:13;2.28;;;1.70;;
69325;SDS011;56471;53.508;49.252;2023-05-07T14:01:39;3.40;;;1.80;;
69325;SDS011;56471;53.508;49.252;2023-05-07T14:04:05;5.25;;;3.35;;
69325;SDS011;56471;53.508;49.252;2023-05-07T14:06:31;260.08;;;158.07;;
69325;SDS011;56471;53.508;49.252;2023-05-07T14:08:56;562.47;;;418.55;;
69325;SDS011;56471;53.508;49.252;2023-05-07T14:11:23;481.25;;;340.25;;
69325;SDS011;56471;53.508;49.252;2023-05-07T14:13:48;372.05;;;251.98;;
69325;SDS011;56471;53.508;49.252;2023-05-07T14:16:14;252.55;;;149.00;;
69325;SDS011;56471;53.508;49.252;2023-05-07T14:18:40;198.48;;;121.28;;
69325;SDS011;56471;53.508;49.252;2023-05-07T14:21:06;155.10;;;94.28;;
69325;SDS011;56471;53.508;49.252;2023-05-07T14:23:32;118.50;;;69.22;;
69325;SDS011;56471;53.508;49.252;2023-05-07T14:25:58;98.63;;;53.97;;
69325;SDS011;56471;53.508;49.252;2023-05-07T14:28:24;72.95;;;38.28;;
69325;SDS011;56471;53.508;49.252;2023-05-07T14:30:49;45.75;;;25.17;;
69325;SDS011;56471;53.508;49.252;2023-05-07T14:33:15;30.63;;;17.42;;
69325;SDS011;56471;53.508;49.252;2023-05-07T14:35:40;22.90;;;11.88;;
69325;SDS011;56471;53.508;49.252;2023-05-07T14:38:06;13.80;;;7.80;;
69325;SDS011;56471;53.508;49.252;2023-05-07T14:40:32;11.13;;;5.97;;
69325;SDS011;56471;53.508;49.252;2023-05-07T14:42:57;8.40;;;5.18;;